Time;durP1;ratioP1;P1;durP2;ratioP2;P2;SDS_P1;SDS_P2;PMS_P1;PMS_P2;Temp;Humidity;BMP_temperature;BMP_pressure;BME280_temperature;BME280_humidity;BME280_pressure;Samples;Min_cycle;Max_cycle;Signal;HPM_P1;HPM_P2
2024/02/16 00:02:01;;;;;;;23.23;10.80;;;;;;;-6.69;68.53;100687.38;4990812;28;20568;-62
2024/02/16 00:04:27;;;;;;;20.75;11.23;;;;;;;-6.59;69.60;100686.78;5007222;28;20050;-62
2024/02/16 00:06:52;;;;;;;25.75;12.10;;;;;;;-6.68;68.55;100683.84;4992065;28;20089;-62
2024/02/16 00:09:18;;;;;;;24.42;11.85;;;;;;;-6.64;69.41;100671.63;4991966;28;20057;-62
2024/02/16 00:11:44;;;;;;;23.83;11.27;;;;;;;-6.69;68.97;100674.47;4991891;28;20038;-62
2024/02/16 00:14:10;;;;;;;23.80;11.35;;;;;;;-6.65;68.44;100672.53;4991047;28;20390;-62
2024/02/16 00:16:36;;;;;;;23.80;12.05;;;;;;;-6.80;68.12;100673.47;4992168;28;20038;-61
2024/02/16 00:19:02;;;;;;;27.08;11.63;;;;;;;-6.80;69.29;100687.19;5006839;28;20168;-62
2024/02/16 00:21:28;;;;;;;25.02;11.25;;;;;;;-6.87;68.98;100676.44;4991550;28;20045;-62
2024/02/16 00:23:54;;;;;;;25.58;11.40;;;;;;;-6.84;68.74;100682.34;4991075;28;20046;-62
2024/02/16 00:26:21;;;;;;;21.75;11.23;;;;;;;-6.76;69.12;100673.22;4991845;28;20124;-63
2024/02/16 00:28:46;;;;;;;22.50;10.60;;;;;;;-6.71;68.75;100678.06;4990661;28;20038;-62
2024/02/16 00:31:12;;;;;;;20.15;10.77;;;;;;;-6.75;68.02;100680.00;4991985;28;20042;-62
2024/02/16 00:33:38;;;;;;;25.13;11.18;;;;;;;-6.73;69.17;100682.50;4992236;28;20072;-62
2024/02/16 00:36:03;;;;;;;23.70;10.50;;;;;;;-6.71;68.93;100680.66;4992075;28;20049;-62
2024/02/16 00:38:29;;;;;;;24.52;10.98;;;;;;;-6.66;69.56;100674.28;4992203;28;20112;-63
2024/02/16 00:40:55;;;;;;;24.13;11.10;;;;;;;-6.70;68.84;100680.56;4990882;28;20393;-63
2024/02/16 00:43:20;;;;;;;23.80;11.25;;;;;;;-6.65;69.93;100682.84;5007116;28;20133;-62
2024/02/16 00:45:47;;;;;;;28.75;13.45;;;;;;;-6.61;69.00;100675.75;4990782;28;20038;-63
2024/02/16 00:48:12;;;;;;;23.13;11.18;;;;;;;-6.67;69.26;100685.53;4990990;28;20050;-62
2024/02/16 00:50:38;;;;;;;22.98;11.13;;;;;;;-6.80;69.13;100670.91;4991894;28;20054;-62
2024/02/16 00:53:04;;;;;;;22.20;11.60;;;;;;;-6.78;69.97;100662.16;4990661;28;20054;-62
2024/02/16 00:55:30;;;;;;;23.05;11.40;;;;;;;-6.77;69.75;100662.97;4991919;28;20058;-63
2024/02/16 00:57:56;;;;;;;23.65;11.02;;;;;;;-6.75;69.65;100668.88;4990623;28;20061;-63
2024/02/16 01:00:23;;;;;;;24.63;10.95;;;;;;;-6.71;70.34;100680.66;4974435;28;20042;-64
2024/02/16 01:02:49;;;;;;;21.90;11.35;;;;;;;-6.65;70.36;100681.13;4991799;28;20132;-63
2024/02/16 01:05:17;;;;;;;20.77;10.90;;;;;;;-6.67;69.82;100682.94;4991813;28;20052;-62
2024/02/16 01:07:43;;;;;;;22.75;10.35;;;;;;;-6.72;69.65;100684.97;4991609;28;20066;-63
2024/02/16 01:10:10;;;;;;;20.83;11.63;;;;;;;-6.81;69.81;100653.78;4990440;28;20042;-63
2024/02/16 01:12:35;;;;;;;24.40;11.40;;;;;;;-6.78;69.19;100675.03;4990532;28;20198;-61
2024/02/16 01:15:01;;;;;;;24.38;12.13;;;;;;;-6.79;70.12;100682.88;4991770;28;20504;-62
2024/02/16 01:17:26;;;;;;;29.63;12.10;;;;;;;-6.71;70.29;100680.66;4991733;28;20058;-61
2024/02/16 01:19:52;;;;;;;23.52;10.98;;;;;;;-6.70;69.88;100670.25;4991934;28;20085;-62
2024/02/16 01:22:18;;;;;;;22.55;11.68;;;;;;;-6.70;69.46;100662.50;4991927;28;20393;-62
2024/02/16 01:24:44;;;;;;;24.75;11.77;;;;;;;-6.73;69.78;100654.16;4974281;28;20108;-62
2024/02/16 01:27:10;;;;;;;24.05;11.82;;;;;;;-6.61;70.89;100661.13;4991567;28;20045;-61
2024/02/16 01:29:36;;;;;;;25.90;11.90;;;;;;;-6.56;70.15;100656.47;5006585;28;20129;-63
2024/02/16 01:32:02;;;;;;;22.70;11.05;;;;;;;-6.59;69.64;100648.94;4991518;28;20068;-62
2024/02/16 01:34:30;;;;;;;26.23;11.52;;;;;;;-6.64;68.86;100651.81;4991594;28;20520;-63
2024/02/16 01:36:56;;;;;;;23.50;11.32;;;;;;;-6.66;69.50;100651.06;4993576;28;20093;-61
2024/02/16 01:39:21;;;;;;;24.20;12.15;;;;;;;-6.61;69.98;100645.63;4995135;28;20504;-62
2024/02/16 01:41:47;;;;;;;20.52;11.23;;;;;;;-6.60;69.71;100643.88;4994955;28;20056;-59
2024/02/16 01:44:16;;;;;;;21.98;11.30;;;;;;;-6.63;69.81;100639.75;4995152;28;20034;-63
2024/02/16 01:46:42;;;;;;;26.98;11.82;;;;;;;-6.64;69.40;100645.84;4995051;28;20101;-62
2024/02/16 01:49:09;;;;;;;24.58;11.30;;;;;;;-6.64;69.22;100648.41;4993924;28;20050;-63
2024/02/16 01:51:35;;;;;;;25.30;10.40;;;;;;;-6.69;69.98;100640.94;4994026;28;20595;-62
2024/02/16 01:54:01;;;;;;;23.58;11.77;;;;;;;-6.57;70.96;100648.84;4995275;28;20042;-61
2024/02/16 01:56:27;;;;;;;25.77;11.55;;;;;;;-6.62;69.75;100651.69;4995005;28;20077;-63
2024/02/16 01:58:53;;;;;;;24.73;11.38;;;;;;;-6.58;69.72;100654.94;4993782;28;20061;-62
2024/02/16 02:01:19;;;;;;;23.33;11.02;;;;;;;-6.53;70.43;100656.31;4994786;28;20093;-63
2024/02/16 02:03:45;;;;;;;23.60;10.70;;;;;;;-6.52;70.56;100660.53;4993534;28;20046;-63
2024/02/16 02:06:11;;;;;;;21.25;11.15;;;;;;;-6.52;70.26;100657.97;4994776;28;20078;-63
2024/02/16 02:08:38;;;;;;;22.48;10.43;;;;;;;-6.45;70.53;100658.38;4994509;28;20064;-62
2024/02/16 02:11:05;;;;;;;24.60;11.45;;;;;;;-6.42;70.48;100656.44;4993747;28;20046;-63
2024/02/16 02:13:30;;;;;;;26.60;11.05;;;;;;;-6.47;69.91;100649.91;4994909;28;20042;-61
2024/02/16 02:15:58;;;;;;;25.55;11.93;;;;;;;-6.48;69.49;100653.41;5009634;28;20141;-62
2024/02/16 02:18:24;;;;;;;27.52;11.98;;;;;;;-6.38;70.97;100648.50;4976994;28;20129;-61
2024/02/16 02:20:50;;;;;;;21.05;11.52;;;;;;;-6.40;69.33;100648.59;4994371;28;20077;-63
2024/02/16 02:23:16;;;;;;;22.90;11.30;;;;;;;-6.48;69.51;100646.50;4994651;28;20128;-62
2024/02/16 02:25:41;;;;;;;21.95;11.13;;;;;;;-6.37;70.56;100645.84;4976894;28;20085;-62
2024/02/16 02:28:08;;;;;;;26.42;12.57;;;;;;;-6.34;69.98;100648.22;4994444;28;20508;-62
2024/02/16 02:30:33;;;;;;;21.70;12.27;;;;;;;-6.52;69.82;100639.06;4993977;28;20476;-61
2024/02/16 02:32:59;;;;;;;22.65;11.13;;;;;;;-6.60;70.49;100646.47;4994293;28;20050;-61
2024/02/16 02:35:25;;;;;;;24.48;11.93;;;;;;;-6.70;70.52;100652.19;4994274;28;20515;-62
2024/02/16 02:37:50;;;;;;;22.00;11.18;;;;;;;-6.67;70.80;100652.00;4994153;28;20054;-62
2024/02/16 02:40:16;;;;;;;26.00;12.35;;;;;;;-6.64;71.35;100648.41;4994111;28;20046;-62
2024/02/16 02:42:42;;;;;;;23.92;11.50;;;;;;;-6.64;71.36;100654.38;4992674;28;20053;-61
2024/02/16 02:45:08;;;;;;;28.02;11.98;;;;;;;-6.70;70.57;100659.94;4993006;28;20444;-62
2024/02/16 02:47:34;;;;;;;23.98;11.38;;;;;;;-6.74;70.75;100663.59;5008301;28;20050;-62
2024/02/16 02:49:59;;;;;;;26.23;12.95;;;;;;;-6.73;71.17;100654.97;4976086;28;20046;-63
2024/02/16 02:52:26;;;;;;;28.33;12.32;;;;;;;-6.61;71.55;100660.28;4992203;28;20512;-63
2024/02/16 02:54:51;;;;;;;23.40;11.77;;;;;;;-6.58;71.01;100654.94;4992659;28;20125;-62
2024/02/16 02:57:17;;;;;;;29.73;13.50;;;;;;;-6.54;71.28;100664.13;4992365;28;20133;-62
2024/02/16 02:59:43;;;;;;;24.42;11.95;;;;;;;-6.48;71.60;100661.16;5008333;28;20042;-63
2024/02/16 03:02:08;;;;;;;26.10;12.25;;;;;;;-6.45;70.60;100668.72;4993481;28;20555;-63
2024/02/16 03:04:35;;;;;;;23.45;12.73;;;;;;;-6.43;70.60;100664.28;4993542;28;20157;-63
2024/02/16 03:07:00;;;;;;;25.92;12.05;;;;;;;-6.36;70.12;100670.69;4976109;28;20501;-61
2024/02/16 03:09:26;;;;;;;27.85;12.65;;;;;;;-6.49;69.84;100670.66;4973669;28;20058;-62
2024/02/16 03:11:52;;;;;;;25.95;13.73;;;;;;;-6.35;70.67;100667.22;4972716;28;20046;-62
2024/02/16 03:14:18;;;;;;;26.13;12.63;;;;;;;-6.30;71.28;100672.88;4974110;28;20058;-63
2024/02/16 03:16:44;;;;;;;21.63;12.55;;;;;;;-6.21;70.20;100682.63;4972817;28;20421;-63
2024/02/16 03:19:09;;;;;;;27.60;11.88;;;;;;;-6.15;70.89;100681.41;4974298;28;20413;-63
2024/02/16 03:21:35;;;;;;;23.45;12.27;;;;;;;-6.20;69.89;100683.47;4973975;28;20053;-64
2024/02/16 03:24:02;;;;;;;24.45;12.48;;;;;;;-6.19;69.94;100685.13;4974150;28;20078;-61
2024/02/16 03:26:27;;;;;;;27.42;12.48;;;;;;;-6.19;70.39;100688.53;4973829;28;20066;-61
2024/02/16 03:28:53;;;;;;;35.50;12.95;;;;;;;-6.22;69.36;100687.91;4973960;28;20078;-63
2024/02/16 03:31:23;;;;;;;30.77;13.43;;;;;;;-6.24;69.99;100682.00;4973902;28;20092;-62
2024/02/16 03:33:49;;;;;;;24.02;12.00;;;;;;;-6.13;70.64;100687.31;4973487;28;20121;-63
2024/02/16 03:36:16;;;;;;;29.13;12.57;;;;;;;-6.06;70.06;100685.16;4956346;28;20054;-61
2024/02/16 03:38:46;;;;;;;25.58;12.13;;;;;;;-6.05;70.14;100679.09;4985576;28;20419;-62
2024/02/16 03:41:14;;;;;;;28.98;13.80;;;;;;;-6.04;70.04;100670.41;4992044;28;20050;-63
2024/02/16 03:43:40;;;;;;;27.50;13.35;;;;;;;-6.14;69.09;100677.91;4993021;28;20052;-62
2024/02/16 03:46:06;;;;;;;30.50;13.55;;;;;;;-6.24;69.86;100669.09;4991664;28;20505;-63
2024/02/16 03:48:31;;;;;;;27.55;14.20;;;;;;;-6.28;69.88;100675.38;4983879;28;20038;-62
2024/02/16 03:50:57;;;;;;;30.77;15.55;;;;;;;-6.26;70.15;100676.94;5007770;28;20144;-63
2024/02/16 03:53:23;;;;;;;36.03;14.95;;;;;;;-6.26;70.52;100664.03;4992960;28;20046;-63
2024/02/16 03:55:49;;;;;;;29.40;14.93;;;;;;;-6.23;70.43;100661.28;4984619;28;20117;-63
2024/02/16 03:58:15;;;;;;;28.98;13.50;;;;;;;-6.21;70.79;100656.00;4980504;28;20050;-62
2024/02/16 04:00:41;;;;;;;29.88;14.07;;;;;;;-6.25;70.42;100662.28;4987589;28;20038;-61
2024/02/16 04:03:07;;;;;;;30.73;14.07;;;;;;;-6.28;70.11;100663.31;4991296;28;20475;-62
2024/02/16 04:05:34;;;;;;;33.42;13.93;;;;;;;-6.28;70.38;100665.88;4992856;28;20044;-61
2024/02/16 04:08:02;;;;;;;26.27;12.75;;;;;;;-6.26;69.86;100658.88;4992323;28;20058;-61
2024/02/16 04:10:30;;;;;;;28.83;13.27;;;;;;;-6.25;70.92;100663.09;4991120;28;20077;-62
2024/02/16 04:12:56;;;;;;;26.83;12.52;;;;;;;-6.26;70.59;100648.56;5007054;28;20073;-62
2024/02/16 04:15:22;;;;;;;28.52;12.90;;;;;;;-6.21;70.78;100661.97;4992522;28;20068;-62
2024/02/16 04:17:49;;;;;;;27.63;12.20;;;;;;;-6.26;69.68;100651.13;4992448;28;20593;-61
2024/02/16 04:20:18;;;;;;;34.97;13.85;;;;;;;-6.32;70.25;100661.00;4992510;28;20563;-60
2024/02/16 04:22:44;;;;;;;26.08;12.70;;;;;;;-6.31;70.51;100654.94;4992020;28;20053;-60
2024/02/16 04:25:10;;;;;;;30.50;14.25;;;;;;;-6.35;70.51;100654.31;4992129;28;20042;-61
2024/02/16 04:27:36;;;;;;;28.92;12.98;;;;;;;-6.37;69.55;100651.00;5007192;28;20140;-61
2024/02/16 04:30:06;;;;;;;28.75;13.10;;;;;;;-6.37;70.90;100656.16;4992059;28;20046;-62
2024/02/16 04:32:32;;;;;;;26.85;14.05;;;;;;;-6.33;70.29;100649.88;4990846;28;20053;-61
2024/02/16 04:34:58;;;;;;;27.02;13.15;;;;;;;-6.31;69.98;100644.63;5007229;28;20044;-60
2024/02/16 04:37:25;;;;;;;26.55;13.18;;;;;;;-6.30;70.35;100643.69;5007024;28;20046;-59
2024/02/16 04:39:51;;;;;;;29.30;13.75;;;;;;;-6.36;69.54;100644.06;4992000;28;20046;-62
2024/02/16 04:42:17;;;;;;;31.83;14.40;;;;;;;-6.44;69.79;100645.41;4990757;28;20116;-62
2024/02/16 04:44:43;;;;;;;28.60;13.23;;;;;;;-6.34;70.10;100637.91;4990848;28;20037;-63
2024/02/16 04:47:09;;;;;;;26.45;12.52;;;;;;;-6.38;69.62;100640.75;4992157;28;20046;-61
2024/02/16 04:49:35;;;;;;;29.42;13.20;;;;;;;-6.43;70.25;100630.75;4992138;28;20042;-61
2024/02/16 04:52:01;;;;;;;28.23;13.57;;;;;;;-6.50;70.97;100632.03;4990638;28;20540;-59
2024/02/16 04:54:26;;;;;;;33.47;14.18;;;;;;;-6.48;70.58;100638.75;4991972;28;20508;-60
2024/02/16 04:56:52;;;;;;;31.70;13.95;;;;;;;-6.61;70.20;100637.91;4991667;28;20077;-60
2024/02/16 04:59:18;;;;;;;29.70;13.45;;;;;;;-6.66;70.27;100634.78;4991851;28;20133;-61
2024/02/16 05:01:44;;;;;;;26.02;12.63;;;;;;;-6.66;70.90;100620.13;4991706;28;20084;-61
2024/02/16 05:04:16;;;;;;;26.08;13.48;;;;;;;-6.54;70.41;100630.59;4992529;28;20042;-60
2024/02/16 05:06:46;;;;;;;27.48;12.93;;;;;;;-6.56;71.08;100633.25;4989807;28;20045;-61
2024/02/16 05:09:12;;;;;;;25.80;12.55;;;;;;;-6.57;70.74;100630.78;4992018;28;20090;-61
2024/02/16 05:11:38;;;;;;;24.45;12.68;;;;;;;-6.61;70.76;100632.75;4994682;28;20081;-60
2024/02/16 05:14:03;;;;;;;35.08;15.00;;;;;;;-6.64;70.75;100626.03;4994210;28;20042;-61
2024/02/16 05:16:29;;;;;;;25.92;13.32;;;;;;;-6.52;70.46;100633.91;4994177;28;20049;-62
2024/02/16 05:18:56;;;;;;;30.05;14.23;;;;;;;-6.46;70.99;100647.25;4993952;28;20050;-62
2024/02/16 05:21:22;;;;;;;30.73;13.73;;;;;;;-6.40;70.65;100664.09;4995071;28;20046;-61
2024/02/16 05:23:48;;;;;;;27.40;14.68;;;;;;;-6.34;70.43;100662.88;4993259;28;20531;-61
2024/02/16 05:26:13;;;;;;;33.10;14.35;;;;;;;-6.37;70.35;100660.50;4995271;28;20112;-60
2024/02/16 05:28:39;;;;;;;36.65;16.02;;;;;;;-6.32;69.87;100671.31;4995545;28;20046;-61
2024/02/16 05:31:17;;;;;;;34.88;14.95;;;;;;;-6.44;69.41;100678.09;4977741;28;20054;-62
2024/02/16 05:33:47;;;;;;;35.60;15.75;;;;;;;-6.27;71.30;100689.94;4995522;28;20050;-63
2024/02/16 05:36:20;;;;;;;36.20;15.65;;;;;;;-6.21;70.55;100682.63;4977573;28;20046;-64
2024/02/16 05:38:47;;;;;;;34.25;15.70;;;;;;;-6.08;70.06;100694.78;4993679;28;20050;-60
2024/02/16 05:41:12;;;;;;;33.00;16.75;;;;;;;-6.00;69.64;100697.66;4961560;28;20044;-63
2024/02/16 05:43:38;;;;;;;32.67;16.27;;;;;;;-6.01;68.96;100699.41;4993807;28;20042;-63
2024/02/16 05:46:07;;;;;;;32.40;15.95;;;;;;;-6.00;69.61;100688.19;4995355;28;20122;-63
2024/02/16 05:48:37;;;;;;;32.75;15.68;;;;;;;-6.01;68.35;100689.09;4993811;28;20046;-63
2024/02/16 05:51:05;;;;;;;35.63;17.17;;;;;;;-6.01;69.04;100681.34;4993824;28;20050;-63
2024/02/16 05:53:31;;;;;;;33.03;16.17;;;;;;;-5.97;68.50;100674.22;4993609;28;20053;-60
2024/02/16 05:55:58;;;;;;;34.80;15.35;;;;;;;-5.88;68.70;100680.50;4977103;28;20042;-61
2024/02/16 05:58:24;;;;;;;29.58;15.80;;;;;;;-5.89;68.37;100678.88;4976884;28;20066;-60
2024/02/16 06:00:50;;;;;;;39.33;16.75;;;;;;;-5.91;67.76;100688.47;5009693;28;20046;-61
2024/02/16 06:03:16;;;;;;;35.70;17.40;;;;;;;-5.82;69.36;100693.06;4993330;28;20452;-59
2024/02/16 06:05:44;;;;;;;37.08;16.50;;;;;;;-5.64;70.30;100688.44;4994453;28;20480;-61
2024/02/16 06:08:13;;;;;;;32.47;16.38;;;;;;;-5.55;67.88;100693.00;4992800;28;20086;-59
2024/02/16 06:10:40;;;;;;;29.60;15.45;;;;;;;-5.59;67.17;100691.53;4994477;28;20054;-59
2024/02/16 06:13:06;;;;;;;33.22;15.10;;;;;;;-5.68;67.49;100687.78;4994582;28;20046;-62
2024/02/16 06:15:33;;;;;;;32.95;16.55;;;;;;;-5.68;68.08;100692.13;4994247;28;20050;-65
2024/02/16 06:18:00;;;;;;;34.45;15.60;;;;;;;-5.53;69.00;100699.72;4994048;28;20078;-61
2024/02/16 06:20:25;;;;;;;25.50;13.88;;;;;;;-5.51;67.93;100697.84;4992989;28;20050;-60
2024/02/16 06:22:51;;;;;;;26.75;13.57;;;;;;;-5.45;66.67;100696.59;4991625;28;20109;-61
2024/02/16 06:25:16;;;;;;;32.72;14.82;;;;;;;-5.46;66.67;100697.53;4960651;28;20416;-60
2024/02/16 06:27:42;;;;;;;26.77;15.23;;;;;;;-5.42;67.61;100685.25;4992534;28;20443;-58
2024/02/16 06:30:12;;;;;;;31.77;14.38;;;;;;;-5.47;65.99;100685.56;4993957;28;20046;-59
2024/02/16 06:32:40;;;;;;;33.22;15.18;;;;;;;-5.45;66.57;100690.63;4993763;28;20043;-59
2024/02/16 06:35:07;;;;;;;28.67;14.45;;;;;;;-5.54;65.88;100695.47;4994197;28;20070;-60
2024/02/16 06:37:33;;;;;;;30.35;15.50;;;;;;;-5.46;66.59;100691.56;4985911;28;20299;-59
2024/02/16 06:39:59;;;;;;;33.72;16.23;;;;;;;-5.44;66.27;100695.69;4992636;28;20047;-59
2024/02/16 06:42:24;;;;;;;29.08;15.18;;;;;;;-5.36;67.32;100701.16;4993857;28;20078;-60
2024/02/16 06:44:50;;;;;;;28.73;13.38;;;;;;;-5.23;66.05;100705.53;4993943;28;20050;-61
2024/02/16 06:47:16;;;;;;;33.03;14.82;;;;;;;-5.23;65.57;100690.84;4993956;28;20057;-58
2024/02/16 06:49:43;;;;;;;31.45;13.90;;;;;;;-5.08;65.25;100688.97;4992055;28;20800;-57
2024/02/16 06:52:09;;;;;;;26.90;14.55;;;;;;;-5.07;64.23;100688.84;5008777;28;20046;-57
2024/02/16 06:54:35;;;;;;;26.13;14.38;;;;;;;-5.05;65.01;100691.34;4993540;28;20046;-58
2024/02/16 06:57:01;;;;;;;26.42;14.35;;;;;;;-5.03;65.83;100689.47;4992392;28;20081;-56
2024/02/16 06:59:27;;;;;;;29.75;15.10;;;;;;;-5.03;64.86;100677.38;4993928;28;20492;-62
2024/02/16 07:01:53;;;;;;;28.42;14.63;;;;;;;-5.02;64.16;100680.78;4992134;28;20042;-59
2024/02/16 07:04:18;;;;;;;28.27;13.13;;;;;;;-4.99;64.65;100684.94;4992284;28;20050;-59
2024/02/16 07:06:44;;;;;;;24.75;13.15;;;;;;;-4.96;64.03;100685.53;4993854;28;20046;-58
2024/02/16 07:09:10;;;;;;;29.08;14.07;;;;;;;-4.91;63.97;100686.06;4995733;28;20526;-60
2024/02/16 07:11:35;;;;;;;27.90;13.48;;;;;;;-4.87;63.44;100690.06;5009211;28;20050;-60
2024/02/16 07:14:02;;;;;;;33.58;14.32;;;;;;;-4.98;63.98;100679.63;4991945;28;20420;-55
2024/02/16 07:16:28;;;;;;;28.55;12.82;;;;;;;-4.88;63.94;100682.41;4991871;28;20128;-57
2024/02/16 07:18:54;;;;;;;31.60;14.35;;;;;;;-4.82;63.86;100684.59;4992602;28;20197;-59
2024/02/16 07:21:22;;;;;;;30.15;14.65;;;;;;;-4.97;63.73;100675.28;5008241;28;20046;-66
2024/02/16 07:23:48;;;;;;;26.63;13.30;;;;;;;-4.90;64.20;100686.88;4992845;28;20042;-58
2024/02/16 07:26:14;;;;;;;31.17;13.90;;;;;;;-4.94;63.99;100685.41;4993029;28;20038;-59
2024/02/16 07:28:39;;;;;;;24.65;14.27;;;;;;;-4.85;65.09;100687.41;4991318;28;20046;-59
2024/02/16 07:31:06;;;;;;;26.30;13.95;;;;;;;-4.89;64.47;100681.56;4992719;28;20057;-63
2024/02/16 07:33:31;;;;;;;29.23;13.70;;;;;;;-4.85;64.13;100690.81;4991005;28;20054;-62
2024/02/16 07:35:57;;;;;;;27.50;14.15;;;;;;;-4.67;63.76;100695.63;4992639;28;20042;-63
2024/02/16 07:38:23;;;;;;;29.80;15.60;;;;;;;-4.51;64.41;100698.78;5007498;28;20523;-62
2024/02/16 07:40:50;;;;;;;34.53;16.48;;;;;;;-4.41;63.76;100696.34;4959270;28;20053;-61
2024/02/16 07:43:17;;;;;;;37.50;18.08;;;;;;;-4.42;62.70;100708.47;4992257;28;20258;-62
2024/02/16 07:45:43;;;;;;;42.42;20.48;;;;;;;-4.39;63.09;100700.50;4991231;28;20053;-63
2024/02/16 07:48:09;;;;;;;40.47;21.45;;;;;;;-4.35;63.32;100707.13;4991130;28;20053;-60
2024/02/16 07:50:35;;;;;;;36.90;18.40;;;;;;;-4.37;63.14;100703.00;4992286;28;20508;-59
2024/02/16 07:53:01;;;;;;;37.70;17.52;;;;;;;-4.34;62.97;100703.59;4992385;28;20046;-59
2024/02/16 07:55:26;;;;;;;31.40;15.73;;;;;;;-4.31;63.42;100709.50;4974954;28;20055;-61
2024/02/16 07:57:52;;;;;;;38.22;15.63;;;;;;;-4.29;61.93;100715.38;4959007;28;20472;-60
2024/02/16 08:00:18;;;;;;;29.63;15.13;;;;;;;-4.34;61.64;100702.78;4992262;28;20042;-61
2024/02/16 08:02:45;;;;;;;27.63;13.93;;;;;;;-4.39;61.48;100700.50;5007098;28;20100;-59
2024/02/16 08:05:12;;;;;;;32.78;14.60;;;;;;;-4.39;62.36;100697.91;4974752;28;20038;-60
2024/02/16 08:07:38;;;;;;;31.92;15.23;;;;;;;-4.28;63.69;100698.91;4992211;28;20097;-61
2024/02/16 08:10:05;;;;;;;27.38;13.40;;;;;;;-4.16;62.93;100701.44;4991952;28;20419;-61
2024/02/16 08:12:32;;;;;;;29.90;13.55;;;;;;;-4.06;61.61;100698.19;4990951;28;20042;-61
2024/02/16 08:14:58;;;;;;;28.08;14.20;;;;;;;-3.89;61.89;100696.03;4991853;28;20042;-61
2024/02/16 08:17:24;;;;;;;30.90;14.45;;;;;;;-3.71;61.08;100703.38;4974796;28;20046;-61
2024/02/16 08:19:54;;;;;;;27.40;13.75;;;;;;;-3.63;59.71;100695.88;4990642;28;20041;-60
2024/02/16 08:22:19;;;;;;;22.77;13.15;;;;;;;-3.52;60.77;100700.28;4992009;28;20100;-60
2024/02/16 08:24:46;;;;;;;29.98;13.98;;;;;;;-3.53;60.31;100694.28;4991754;28;20452;-60
2024/02/16 08:27:15;;;;;;;30.85;14.60;;;;;;;-3.55;60.81;100690.97;4990701;28;20054;-62
2024/02/16 08:29:44;;;;;;;26.88;13.40;;;;;;;-3.47;60.19;100685.19;4991553;28;20050;-62
2024/02/16 08:32:10;;;;;;;28.30;14.85;;;;;;;-3.45;60.36;100699.69;4990838;28;20057;-61
2024/02/16 08:34:39;;;;;;;31.92;15.10;;;;;;;-3.42;60.40;100696.88;4991507;28;20046;-62
2024/02/16 08:37:05;;;;;;;29.70;14.52;;;;;;;-3.48;59.68;100689.53;4990608;28;20046;-62
2024/02/16 08:39:34;;;;;;;29.77;13.80;;;;;;;-3.61;60.19;100704.38;4991642;28;20054;-62
2024/02/16 08:42:35;;;;;;;30.08;15.32;;;;;;;-3.62;60.07;100715.66;4991674;28;20042;-61
2024/02/16 08:45:05;;;;;;;25.50;13.68;;;;;;;-3.60;59.99;100720.75;4952780;28;20051;-62
2024/02/16 08:47:32;;;;;;;28.05;15.15;;;;;;;-3.71;59.45;100719.75;4971458;28;20058;-62
2024/02/16 08:50:37;;;;;;;31.90;15.68;;;;;;;-3.76;60.65;100706.34;4987302;28;20463;-61
2024/02/16 08:53:10;;;;;;;29.45;14.93;;;;;;;-3.77;59.74;100714.22;4972358;28;20137;-61
2024/02/16 08:55:37;;;;;;;34.60;14.52;;;;;;;-3.78;59.73;100710.78;4991531;28;20093;-61
2024/02/16 08:58:03;;;;;;;30.20;15.80;;;;;;;-3.74;59.83;100716.56;4958404;28;20051;-59
2024/02/16 09:00:29;;;;;;;27.00;14.45;;;;;;;-3.76;60.02;100719.28;4942108;28;20044;-61
2024/02/16 09:02:55;;;;;;;41.65;14.75;;;;;;;-3.74;59.40;100712.22;4991472;28;20054;-62
2024/02/16 09:05:20;;;;;;;28.48;13.85;;;;;;;-3.76;59.70;100718.47;4991532;28;20452;-60
2024/02/16 09:07:49;;;;;;;30.90;14.05;;;;;;;-3.85;59.89;100712.19;4994397;28;20073;-62
2024/02/16 09:10:15;;;;;;;36.20;14.85;;;;;;;-3.97;60.14;100710.47;4991466;28;20062;-61
2024/02/16 09:12:41;;;;;;;31.75;14.82;;;;;;;-4.27;59.99;100674.69;4990138;28;20042;-61
2024/02/16 09:15:08;;;;;;;31.73;14.40;;;;;;;-4.11;61.14;100689.00;4990335;28;20042;-60
2024/02/16 09:17:34;;;;;;;29.17;14.18;;;;;;;-4.14;60.87;100699.59;4973707;28;20054;-60
2024/02/16 09:20:00;;;;;;;30.17;14.15;;;;;;;-4.16;60.99;100698.84;4990320;28;20053;-60
2024/02/16 09:22:25;;;;;;;28.88;14.93;;;;;;;-4.15;60.96;100695.34;4991188;28;20054;-62
2024/02/16 09:24:51;;;;;;;32.53;15.27;;;;;;;-4.15;61.49;100691.91;4991463;28;20121;-62
2024/02/16 09:27:19;;;;;;;30.40;15.30;;;;;;;-4.15;61.88;100697.94;4991294;28;20046;-61
2024/02/16 09:29:45;;;;;;;32.03;15.85;;;;;;;-4.17;62.12;100696.41;4992095;28;20409;-61
2024/02/16 09:32:11;;;;;;;29.85;14.68;;;;;;;-4.16;61.07;100685.91;4988406;28;20055;-64
2024/02/16 09:34:36;;;;;;;30.73;15.43;;;;;;;-4.14;61.14;100689.22;4991252;28;20077;-62
2024/02/16 09:37:03;;;;;;;27.13;15.45;;;;;;;-4.29;61.04;100684.31;4985702;28;20043;-62
2024/02/16 09:39:30;;;;;;;30.30;15.52;;;;;;;-4.20;61.51;100684.50;4983546;28;20435;-63
2024/02/16 09:41:56;;;;;;;30.58;15.52;;;;;;;-4.15;61.69;100681.56;4980235;28;20421;-63
2024/02/16 09:44:22;;;;;;;34.83;16.25;;;;;;;-3.99;61.55;100686.47;4980260;28;20043;-62
2024/02/16 09:46:48;;;;;;;34.47;16.63;;;;;;;-3.95;62.03;100680.13;4981439;28;20667;-63
2024/02/16 09:49:13;;;;;;;28.35;14.00;;;;;;;-3.99;61.26;100676.09;4980489;28;20163;-62
2024/02/16 09:51:39;;;;;;;35.63;16.50;;;;;;;-3.85;62.77;100669.91;4982181;28;20046;-62
2024/02/16 09:54:05;;;;;;;32.40;16.33;;;;;;;-3.71;61.24;100661.94;4983503;28;20089;-63
2024/02/16 09:56:30;;;;;;;36.80;16.90;;;;;;;-3.58;60.23;100670.44;4983368;28;20522;-61
2024/02/16 09:58:56;;;;;;;32.35;14.98;;;;;;;-3.75;59.98;100669.09;4975527;28;20046;-62
2024/02/16 10:01:23;;;;;;;31.55;15.60;;;;;;;-3.74;61.00;100662.16;4993126;28;20050;-61
2024/02/16 10:04:28;;;;;;;33.10;15.40;;;;;;;-3.59;60.71;100663.59;4978167;28;20042;-63
2024/02/16 10:06:57;;;;;;;34.38;16.27;;;;;;;-3.47;62.19;100667.03;4955285;28;20056;-63
2024/02/16 10:09:29;;;;;;;34.28;16.38;;;;;;;-3.33;60.15;100663.41;4974808;28;20114;-63
2024/02/16 10:11:55;;;;;;;32.42;16.50;;;;;;;-3.21;60.96;100665.91;5007875;28;20041;-63
2024/02/16 10:14:20;;;;;;;28.48;15.38;;;;;;;-3.24;59.94;100653.16;4992622;28;20078;-63
2024/02/16 10:16:47;;;;;;;33.25;16.33;;;;;;;-3.18;61.03;100657.06;4993361;28;20073;-61
2024/02/16 10:19:14;;;;;;;27.17;15.23;;;;;;;-3.13;60.58;100657.53;4993018;28;20049;-62
2024/02/16 10:21:41;;;;;;;31.42;16.20;;;;;;;-3.04;60.66;100648.22;4957616;28;20047;-63
2024/02/16 10:24:11;;;;;;;33.22;17.10;;;;;;;-2.87;59.76;100639.94;4971981;28;20053;-62
2024/02/16 10:26:38;;;;;;;;;;;;;;;-3.00;59.59;100644.44;5004676;28;20039;-62
2024/02/16 10:29:14;;;;;;;34.85;17.08;;;;;;;-3.14;59.65;100640.31;5008562;28;19932;-63
2024/02/16 10:31:40;;;;;;;35.20;16.48;;;;;;;-2.99;60.58;100646.91;4992002;28;20046;-63
2024/02/16 10:34:06;;;;;;;40.83;18.70;;;;;;;-2.90;59.65;100652.34;4994899;28;20056;-64
2024/02/16 10:36:34;;;;;;;33.50;17.27;;;;;;;-2.80;60.50;100650.66;4993767;28;20035;-62
2024/02/16 10:39:04;;;;;;;31.25;15.73;;;;;;;-2.86;58.74;100651.97;4994209;28;20058;-63
2024/02/16 10:41:37;;;;;;;32.03;15.93;;;;;;;-2.90;58.25;100647.97;4976786;28;20124;-62
2024/02/16 10:44:04;;;;;;;33.38;16.13;;;;;;;-2.99;59.47;100641.72;4992829;28;20188;-62
2024/02/16 10:46:30;;;;;;;36.63;17.92;;;;;;;-2.99;60.14;100654.69;4993770;28;20058;-61
2024/02/16 10:48:56;;;;;;;41.35;18.48;;;;;;;-2.87;59.17;100652.09;4993550;28;20046;-61
2024/02/16 10:51:35;;;;;;;39.40;18.00;;;;;;;-2.70;59.40;100654.22;4992454;28;20069;-61
2024/02/16 10:54:01;;;;;;;43.88;19.67;;;;;;;-2.65;58.88;100664.22;4992600;28;20038;-60
2024/02/16 10:56:40;;;;;;;41.70;18.55;;;;;;;-2.58;58.79;100653.22;4993700;28;20116;-61
2024/02/16 10:59:08;;;;;;;38.80;18.33;;;;;;;-2.59;58.70;100656.78;4976239;28;20050;-62
2024/02/16 11:01:42;;;;;;;39.97;19.35;;;;;;;-2.54;59.02;100661.59;4959758;28;20046;-62
2024/02/16 11:04:12;;;;;;;51.63;22.17;;;;;;;-2.39;58.91;100660.38;4992189;28;20049;-63
2024/02/16 11:06:48;;;;;;;42.90;18.80;;;;;;;-2.33;58.76;100662.47;4993062;28;20039;-63
2024/02/16 11:09:30;;;;;;;45.25;20.13;;;;;;;-2.40;58.24;100656.13;4992829;28;20091;-61